createdAt,value
2022-09-20T00:02:13.502Z,9.22
2022-09-20T00:04:43.924Z,9.16
2022-09-20T00:07:14.379Z,9.20
2022-09-20T00:09:45.006Z,9.17
2022-09-20T00:12:15.805Z,9.16
2022-09-20T00:14:46.234Z,9.19
2022-09-20T00:17:16.737Z,9.16
2022-09-20T00:19:48.315Z,9.15
2022-09-20T00:22:18.707Z,9.08
2022-09-20T00:24:49.280Z,9.08
2022-09-20T00:27:23.251Z,9.06
2022-09-20T00:29:53.879Z,9.06
2022-09-20T00:32:24.360Z,9.08
2022-09-20T00:35:13.214Z,9.03
2022-09-20T00:37:44.772Z,9.01
2022-09-20T00:40:19.901Z,8.99
2022-09-20T00:42:51.150Z,8.93
2022-09-20T00:45:24.644Z,8.96
2022-09-20T00:48:09.893Z,8.95
2022-09-20T00:51:03.285Z,8.92
2022-09-20T00:53:36.991Z,8.93
2022-09-20T00:56:15.811Z,8.92
2022-09-20T00:58:49.309Z,8.92
2022-09-20T01:01:20.307Z,8.91
2022-09-20T01:03:50.727Z,8.92
2022-09-20T01:06:22.520Z,8.92
2022-09-20T01:08:56.158Z,8.92
2022-09-20T01:11:26.993Z,8.84
2022-09-20T01:13:57.645Z,8.90
2022-09-20T01:16:29.000Z,8.87
2022-09-20T01:19:02.632Z,8.86
2022-09-20T01:21:33.369Z,8.90
2022-09-20T01:24:19.090Z,8.85
2022-09-20T01:27:10.682Z,8.80
2022-09-20T01:29:46.824Z,8.78
2022-09-20T01:32:20.254Z,8.78
2022-09-20T01:34:53.645Z,8.76
2022-09-20T01:37:42.778Z,8.74
2022-09-20T01:40:28.642Z,8.74
2022-09-20T01:43:08.028Z,8.74
2022-09-20T01:45:41.815Z,8.74
2022-09-20T01:48:17.992Z,8.69
2022-09-20T01:50:57.540Z,8.74
2022-09-20T01:53:50.833Z,8.72
2022-09-20T01:56:39.536Z,8.68
2022-09-20T01:59:24.569Z,8.68
2022-09-20T02:02:06.074Z,8.68
2022-09-20T02:04:40.406Z,8.74
2022-09-20T02:07:20.112Z,8.82
2022-09-20T02:10:10.536Z,8.79
2022-09-20T02:12:55.783Z,8.81
2022-09-20T02:15:36.566Z,8.87
2022-09-20T02:18:38.890Z,8.92
2022-09-20T02:21:36.544Z,8.86
2022-09-20T02:24:45.281Z,8.92
2022-09-20T02:27:24.958Z,8.96
2022-09-20T02:30:07.172Z,8.96
2022-09-20T02:32:56.899Z,9.03
2022-09-20T02:36:01.056Z,9.00
2022-09-20T02:39:02.026Z,9.09
2022-09-20T02:41:58.380Z,9.04
2022-09-20T02:44:46.877Z,9.08
2022-09-20T02:47:20.890Z,9.12
2022-09-20T02:50:24.564Z,9.12
2022-09-20T02:53:20.517Z,9.12
2022-09-20T02:56:03.198Z,9.20
2022-09-20T02:58:51.587Z,9.14
2022-09-20T03:01:47.642Z,9.18
2022-09-20T03:04:38.117Z,9.18
2022-09-20T03:07:23.682Z,9.18
2022-09-20T03:10:15.173Z,9.17
2022-09-20T03:13:14.270Z,9.15
2022-09-20T03:15:59.827Z,9.20
2022-09-20T03:18:39.270Z,9.18
2022-09-20T03:21:47.242Z,9.19
2022-09-20T03:24:32.458Z,9.20
2022-09-20T03:27:28.352Z,9.24
2022-09-20T03:30:04.402Z,9.25
2022-09-20T03:32:46.615Z,9.28
2022-09-20T03:35:53.761Z,9.29
2022-09-20T03:38:27.702Z,9.27
2022-09-20T03:41:12.620Z,9.28
2022-09-20T03:44:13.317Z,9.35
2022-09-20T03:46:46.525Z,9.33
2022-09-20T03:49:53.716Z,9.38
2022-09-20T03:52:42.154Z,9.42
2022-09-20T03:55:44.587Z,9.36
2022-09-20T03:58:34.541Z,9.38
2022-09-20T04:01:14.491Z,9.40
2022-09-20T04:03:51.135Z,9.42
2022-09-20T04:06:41.308Z,9.35
2022-09-20T04:09:49.767Z,9.40
2022-09-20T04:12:51.908Z,9.38
2022-09-20T04:15:40.144Z,9.48
2022-09-20T04:18:35.816Z,9.51
2022-09-20T04:21:32.209Z,9.42
2022-09-20T04:24:25.294Z,9.38
2022-09-20T04:27:01.427Z,9.40
2022-09-20T04:29:37.801Z,9.35
2022-09-20T04:32:33.765Z,9.28
2022-09-20T04:35:57.116Z,9.33
2022-09-20T04:38:27.915Z,9.28
2022-09-20T04:41:09.841Z,9.32
2022-09-20T04:44:15.268Z,9.26
2022-09-20T04:46:57.500Z,9.22
2022-09-20T04:49:43.089Z,9.26
2022-09-20T04:52:22.303Z,9.26
2022-09-20T04:54:55.881Z,9.24
2022-09-20T04:57:52.178Z,9.26
2022-09-20T05:00:25.003Z,9.28
2022-09-20T05:03:19.319Z,9.24
2022-09-20T05:06:05.148Z,9.28
2022-09-20T05:08:58.026Z,9.27
2022-09-20T05:11:37.324Z,9.27
2022-09-20T05:14:33.528Z,9.26
2022-09-20T05:17:28.106Z,9.26
2022-09-20T05:20:35.117Z,9.24
2022-09-20T05:23:25.227Z,9.25
2022-09-20T05:26:19.915Z,9.27
2022-09-20T05:29:05.687Z,9.22
2022-09-20T05:31:54.132Z,9.32
2022-09-20T05:34:32.144Z,9.28
2022-09-20T05:37:11.615Z,9.26
2022-09-20T05:39:45.147Z,9.26
2022-09-20T05:42:18.565Z,9.33
2022-09-20T05:45:12.881Z,9.38
2022-09-20T05:47:55.080Z,9.54
2022-09-20T05:50:49.546Z,9.54
2022-09-20T05:53:25.759Z,9.61
2022-09-20T05:56:02.321Z,9.69
2022-09-20T05:58:50.590Z,9.66
2022-09-20T06:01:24.078Z,9.76
2022-09-20T06:04:20.595Z,9.74
2022-09-20T06:06:54.061Z,9.86
2022-09-20T06:09:36.670Z,9.91
2022-09-20T06:12:26.473Z,10.04
2022-09-20T06:15:04.029Z,10.03
2022-09-20T06:17:43.230Z,9.96
2022-09-20T06:20:39.417Z,10.02
2022-09-20T06:23:11.238Z,10.09
2022-09-20T06:25:54.971Z,10.16
2022-09-20T06:28:31.075Z,10.16
2022-09-20T06:31:03.432Z,10.16
2022-09-20T06:33:34.043Z,10.17
2022-09-20T06:36:45.891Z,10.29
2022-09-20T06:39:55.769Z,10.22
2022-09-20T06:42:27.532Z,10.16
2022-09-20T06:44:58.435Z,10.26
2022-09-20T06:47:29.109Z,10.14
2022-09-20T06:50:00.071Z,10.16
2022-09-20T06:52:30.615Z,10.16
2022-09-20T06:55:01.785Z,10.13
2022-09-20T06:57:37.893Z,10.16
2022-09-20T07:00:10.824Z,10.13
2022-09-20T07:02:41.179Z,10.04
2022-09-20T07:05:17.139Z,9.95
2022-09-20T07:07:47.669Z,9.86
2022-09-20T07:10:18.560Z,9.82
2022-09-20T07:12:49.792Z,9.80
2022-09-20T07:15:21.928Z,9.90
2022-09-20T07:17:52.512Z,9.82
2022-09-20T07:20:46.950Z,9.85
2022-09-20T07:23:19.161Z,9.85
2022-09-20T07:25:49.477Z,9.86
2022-09-20T07:28:23.161Z,9.87
2022-09-20T07:30:54.292Z,9.99
2022-09-20T07:33:25.116Z,10.09
2022-09-20T07:35:56.260Z,10.17
2022-09-20T07:38:26.668Z,10.28
2022-09-20T07:41:02.345Z,10.42
2022-09-20T07:43:33.174Z,10.40
2022-09-20T07:46:03.628Z,10.40
2022-09-20T07:48:36.964Z,10.46
2022-09-20T07:51:10.298Z,10.48
2022-09-20T07:53:41.737Z,10.54
2022-09-20T07:56:14.511Z,10.52
2022-09-20T07:58:48.711Z,10.62
2022-09-20T08:01:17.567Z,10.71
2022-09-20T08:03:48.121Z,10.73
2022-09-20T08:06:18.768Z,10.88
2022-09-20T08:08:49.657Z,11.03
2022-09-20T08:11:28.743Z,11.04
2022-09-20T08:14:08.385Z,11.10
2022-09-20T08:16:33.169Z,11.21
2022-09-20T08:19:04.169Z,11.22
2022-09-20T08:21:38.535Z,11.25
2022-09-20T08:24:09.077Z,11.30
2022-09-20T08:26:39.572Z,11.39
2022-09-20T08:29:11.400Z,11.41
2022-09-20T08:31:42.570Z,11.58
2022-09-20T08:34:15.621Z,11.54
2022-09-20T08:36:49.298Z,11.65
2022-09-20T08:42:04.069Z,11.78
2022-09-20T08:44:47.012Z,11.84
2022-09-20T08:47:27.260Z,11.93
2022-09-20T08:49:59.689Z,12.00
2022-09-20T08:52:37.744Z,12.26
2022-09-20T08:55:20.302Z,12.41
2022-09-20T08:57:53.780Z,12.38
2022-09-20T09:00:26.866Z,12.44
2022-09-20T09:03:00.264Z,12.50
2022-09-20T09:05:42.607Z,12.54
2022-09-20T09:08:16.762Z,12.65
2022-09-20T09:10:52.293Z,12.80
2022-09-20T09:13:37.654Z,12.82
2022-09-20T09:16:15.070Z,12.98
2022-09-20T09:18:51.600Z,13.12
2022-09-20T09:21:25.110Z,13.10
2022-09-20T09:24:08.899Z,13.21
2022-09-20T09:26:46.638Z,13.36
2022-09-20T09:29:20.231Z,13.36
2022-09-20T09:31:54.611Z,13.47
2022-09-20T09:34:34.623Z,13.57
2022-09-20T09:37:05.171Z,13.36
2022-09-20T09:39:38.170Z,13.46
2022-09-20T09:42:24.006Z,13.68
2022-09-20T09:44:54.437Z,13.84
2022-09-20T09:47:29.594Z,14.12
2022-09-20T09:50:05.042Z,14.12
2022-09-20T09:52:36.367Z,14.04
2022-09-20T09:55:10.114Z,14.02
2022-09-20T09:57:54.389Z,13.96
2022-09-20T10:00:27.427Z,13.80
2022-09-20T10:03:24.902Z,14.15
2022-09-20T10:06:01.666Z,14.12
2022-09-20T10:08:51.473Z,14.37
2022-09-20T10:11:55.722Z,14.69
2022-09-20T10:14:43.963Z,14.93
2022-09-20T10:17:43.476Z,15.01
2022-09-20T10:20:27.692Z,14.80
2022-09-20T10:23:39.471Z,15.10
2022-09-20T10:25:47.463Z,15.23
2022-09-20T10:28:23.707Z,15.50
2022-09-20T10:31:06.269Z,15.62
2022-09-20T10:34:03.481Z,15.46
2022-09-20T10:36:40.415Z,15.63
2022-09-20T10:39:36.214Z,15.49
2022-09-20T10:42:59.491Z,15.21
2022-09-20T10:46:14.508Z,14.76
2022-09-20T10:48:26.319Z,14.67
2022-09-20T10:51:21.041Z,14.46
2022-09-20T10:54:14.127Z,14.32
2022-09-20T10:56:49.184Z,14.19
2022-09-20T10:59:43.550Z,14.10
2022-09-20T11:02:41.151Z,14.04
2022-09-20T11:05:32.848Z,14.00
2022-09-20T11:08:19.365Z,13.82
2022-09-20T11:11:07.804Z,13.59
2022-09-20T11:14:02.515Z,13.21
2022-09-20T11:16:36.499Z,12.88
2022-09-20T11:19:27.055Z,12.44
2022-09-20T11:22:00.565Z,12.26
2022-09-20T11:24:42.927Z,12.02
2022-09-20T11:27:25.780Z,11.86
2022-09-20T11:30:15.933Z,11.66
2022-09-20T11:33:01.651Z,11.28
2022-09-20T11:35:40.418Z,10.70
2022-09-20T11:38:29.285Z,10.62
2022-09-20T11:41:02.779Z,10.64
2022-09-20T11:43:35.460Z,10.68
2022-09-20T11:46:12.168Z,10.81
2022-09-20T11:48:54.251Z,10.88
2022-09-20T11:51:46.381Z,11.28
2022-09-20T11:54:22.873Z,12.16
2022-09-20T11:57:00.027Z,14.46
2022-09-20T11:59:40.326Z,16.22
2022-09-20T12:02:16.844Z,16.46
2022-09-20T12:04:50.299Z,16.33
2022-09-20T12:07:39.622Z,15.49
2022-09-20T12:10:27.471Z,15.11
2022-09-20T12:13:09.757Z,15.20
2022-09-20T12:15:41.782Z,15.38
2022-09-20T12:18:17.719Z,15.13
2022-09-20T12:21:00.016Z,15.40
2022-09-20T12:23:42.707Z,15.52
2022-09-20T12:26:25.460Z,15.06
2022-09-20T12:28:59.175Z,15.06
2022-09-20T12:31:33.534Z,15.12
2022-09-20T12:34:15.903Z,15.05
2022-09-20T12:36:59.896Z,15.37
2022-09-20T12:39:32.805Z,16.03
2022-09-20T12:42:17.382Z,16.18
2022-09-20T12:44:55.041Z,16.16
2022-09-20T12:47:31.098Z,15.63
2022-09-20T12:50:25.122Z,14.98
2022-09-20T12:52:58.458Z,15.00
2022-09-20T12:55:32.248Z,14.46
2022-09-20T12:58:17.252Z,14.46
2022-09-20T13:01:00.014Z,13.52
2022-09-20T13:03:34.855Z,13.36
2022-09-20T13:06:12.364Z,13.15
2022-09-20T13:09:04.524Z,12.83
2022-09-20T13:11:51.707Z,12.76
2022-09-20T13:14:25.085Z,12.71
2022-09-20T13:17:16.637Z,12.52
2022-09-20T13:19:49.889Z,12.46
2022-09-20T13:22:40.212Z,12.72
2022-09-20T13:25:15.954Z,12.80
2022-09-20T13:28:10.422Z,12.92
2022-09-20T13:30:41.884Z,13.20
2022-09-20T13:33:23.969Z,13.50
2022-09-20T13:35:58.185Z,13.70
2022-09-20T13:38:31.862Z,13.78
2022-09-20T13:41:13.035Z,13.94
2022-09-20T13:43:49.879Z,14.19
2022-09-20T13:46:25.805Z,14.33
2022-09-20T13:49:18.826Z,14.68
2022-09-20T13:51:50.308Z,14.39
2022-09-20T13:54:34.410Z,14.19
2022-09-20T13:57:08.234Z,14.04
2022-09-20T13:59:44.861Z,13.85
2022-09-20T14:02:27.157Z,13.72
2022-09-20T14:05:00.452Z,13.47
2022-09-20T14:07:31.648Z,13.46
2022-09-20T14:10:02.077Z,13.40
2022-09-20T14:12:33.739Z,13.16
2022-09-20T14:15:07.228Z,13.20
2022-09-20T14:17:39.017Z,13.14
2022-09-20T14:20:12.400Z,13.06
2022-09-20T14:22:45.062Z,13.11
2022-09-20T14:25:18.628Z,13.32
2022-09-20T14:27:49.166Z,13.50
2022-09-20T14:30:31.358Z,13.60
2022-09-20T14:33:01.917Z,13.56
2022-09-20T14:35:33.368Z,13.98
2022-09-20T14:38:10.145Z,15.14
2022-09-20T14:40:46.024Z,15.18
2022-09-20T14:43:28.284Z,15.09
2022-09-20T14:46:02.041Z,14.95
2022-09-20T14:48:38.426Z,14.84
2022-09-20T14:51:23.362Z,14.44
2022-09-20T14:53:59.330Z,14.22
2022-09-20T14:56:35.348Z,14.12
2022-09-20T14:59:13.811Z,14.36
2022-09-20T15:01:50.233Z,14.06
2022-09-20T15:04:23.030Z,13.90
2022-09-20T15:06:53.794Z,13.67
2022-09-20T15:09:24.166Z,13.46
2022-09-20T15:12:05.957Z,13.40
2022-09-20T15:14:38.052Z,13.36
2022-09-20T15:17:10.396Z,13.44
2022-09-20T15:19:40.804Z,13.45
2022-09-20T15:22:14.044Z,13.48
2022-09-20T15:24:44.721Z,13.42
2022-09-20T15:27:15.966Z,13.53
2022-09-20T15:29:46.664Z,13.65
2022-09-20T15:32:17.055Z,13.76
2022-09-20T15:34:47.462Z,13.56
2022-09-20T15:37:17.847Z,13.41
2022-09-20T15:39:48.326Z,13.12
2022-09-20T15:42:20.366Z,12.82
2022-09-20T15:44:53.961Z,12.69
2022-09-20T15:47:24.326Z,12.47
2022-09-20T15:49:54.623Z,12.32
2022-09-20T15:52:25.501Z,12.21
2022-09-20T15:54:57.537Z,12.02
2022-09-20T15:57:28.019Z,11.94
2022-09-20T15:59:59.391Z,11.84
2022-09-20T16:02:31.115Z,11.75
2022-09-20T16:05:01.949Z,11.88
2022-09-20T16:07:32.323Z,11.96
2022-09-20T16:10:02.723Z,12.00
2022-09-20T16:12:33.091Z,12.00
2022-09-20T16:15:03.478Z,12.07
2022-09-20T16:17:51.658Z,12.14
2022-09-20T16:20:23.480Z,12.08
2022-09-20T16:22:53.916Z,12.06
2022-09-20T16:25:24.589Z,12.01
2022-09-20T16:27:54.958Z,11.90
2022-09-20T16:30:25.349Z,11.81
2022-09-20T16:32:56.026Z,11.72
2022-09-20T16:35:34.055Z,11.66
2022-09-20T16:38:04.424Z,11.54
2022-09-20T16:40:35.062Z,11.57
2022-09-20T16:43:06.972Z,11.50
2022-09-20T16:45:37.489Z,11.58
2022-09-20T16:48:08.679Z,11.52
2022-09-20T16:50:39.237Z,11.52
2022-09-20T16:53:09.592Z,11.50
2022-09-20T16:55:43.044Z,11.44
2022-09-20T16:58:13.423Z,11.36
2022-09-20T17:00:44.075Z,11.38
2022-09-20T17:03:15.930Z,11.38
2022-09-20T17:05:48.005Z,11.34
2022-09-20T17:08:18.317Z,11.47
2022-09-20T17:10:49.898Z,11.44
2022-09-20T17:13:20.192Z,11.40
2022-09-20T17:15:52.117Z,11.43
2022-09-20T17:18:22.603Z,11.44
2022-09-20T17:20:53.182Z,11.40
2022-09-20T17:23:25.045Z,11.37
2022-09-20T17:26:06.220Z,11.36
2022-09-20T17:28:38.832Z,11.35
2022-09-20T17:31:11.787Z,11.34
2022-09-20T17:33:43.130Z,11.28
2022-09-20T17:36:26.507Z,11.28
2022-09-20T17:39:03.922Z,11.32
2022-09-20T17:41:32.525Z,11.25
2022-09-20T17:44:04.721Z,11.22
2022-09-20T17:46:40.183Z,11.04
2022-09-20T17:49:13.915Z,11.06
2022-09-20T17:51:46.576Z,10.97
2022-09-20T17:54:17.157Z,10.89
2022-09-20T17:56:50.356Z,10.82
2022-09-20T17:59:21.521Z,10.77
2022-09-20T18:01:54.160Z,10.66
2022-09-20T18:04:24.900Z,10.75
2022-09-20T18:06:56.046Z,10.74
2022-09-20T18:09:28.216Z,10.75
2022-09-20T18:11:58.682Z,10.68
2022-09-20T18:14:31.141Z,10.68
2022-09-20T18:17:01.918Z,10.69
2022-09-20T18:19:35.579Z,10.57
2022-09-20T18:22:06.161Z,10.53
2022-09-20T18:24:36.641Z,10.57
2022-09-20T18:27:07.144Z,10.56
2022-09-20T18:29:37.519Z,10.52
2022-09-20T18:32:08.772Z,10.51
2022-09-20T18:34:39.513Z,10.48
2022-09-20T18:37:14.447Z,10.46
2022-09-20T18:39:42.899Z,10.42
2022-09-20T18:42:13.308Z,10.41
2022-09-20T18:44:45.362Z,10.42
2022-09-20T18:47:16.042Z,10.41
2022-09-20T18:49:46.415Z,10.45
2022-09-20T18:52:18.439Z,10.33
2022-09-20T18:54:48.888Z,10.47
2022-09-20T18:57:19.737Z,10.32
2022-09-20T18:59:54.612Z,10.31
2022-09-20T19:02:28.264Z,10.32
2022-09-20T19:05:32.302Z,10.33
2022-09-20T19:08:11.164Z,10.38
2022-09-20T19:10:56.635Z,10.28
2022-09-20T19:13:38.970Z,10.28
2022-09-20T19:16:18.414Z,10.34
2022-09-20T19:18:52.263Z,10.26
2022-09-20T19:21:45.062Z,10.24
2022-09-20T19:24:36.728Z,10.16
2022-09-20T19:27:08.855Z,10.10
2022-09-20T19:29:39.878Z,10.07
2022-09-20T19:32:13.360Z,10.09
2022-09-20T19:34:45.534Z,10.07
2022-09-20T19:37:39.728Z,10.06
2022-09-20T19:40:15.962Z,9.98
2022-09-20T19:43:14.983Z,10.00
2022-09-20T19:45:57.697Z,9.92
2022-09-20T19:48:39.760Z,9.93
2022-09-20T19:51:13.983Z,9.94
2022-09-20T19:53:45.095Z,9.93
2022-09-20T19:56:27.586Z,9.93
2022-09-20T19:58:58.949Z,9.92
2022-09-20T20:01:30.139Z,9.90
2022-09-20T20:04:00.880Z,9.94
2022-09-20T20:06:52.163Z,9.88
2022-09-20T20:09:42.058Z,9.84
2022-09-20T20:12:15.667Z,9.84
2022-09-20T20:15:00.829Z,9.86
2022-09-20T20:17:57.310Z,9.86
2022-09-20T20:20:51.321Z,9.80
2022-09-20T20:23:45.903Z,9.78
2022-09-20T20:26:27.173Z,9.79
2022-09-20T20:28:57.822Z,9.69
2022-09-20T20:31:29.449Z,9.71
2022-09-20T20:34:00.266Z,9.68
2022-09-20T20:36:30.610Z,9.78
2022-09-20T20:39:02.598Z,9.72
2022-09-20T20:41:32.963Z,9.66
2022-09-20T20:44:04.963Z,9.66
2022-09-20T20:46:36.012Z,9.60
2022-09-20T20:49:06.452Z,9.58
2022-09-20T20:51:37.410Z,9.56
2022-09-20T20:54:07.987Z,9.55
2022-09-20T20:56:38.366Z,9.54
2022-09-20T20:59:08.835Z,9.63
2022-09-20T21:01:45.933Z,9.57
2022-09-20T21:04:16.825Z,9.69
2022-09-20T21:06:47.454Z,9.66
2022-09-20T21:09:17.796Z,9.60
2022-09-20T21:11:48.480Z,9.54
2022-09-20T21:14:18.835Z,9.61
2022-09-20T21:16:51.126Z,9.59
2022-09-20T21:19:23.144Z,9.57
2022-09-20T21:21:53.398Z,9.53
2022-09-20T21:24:23.700Z,9.55
2022-09-20T21:26:54.078Z,9.52
2022-09-20T21:29:24.363Z,9.50
2022-09-20T21:31:54.745Z,9.42
2022-09-20T21:34:25.400Z,9.42
2022-09-20T21:36:55.933Z,9.41
2022-09-20T21:39:26.327Z,9.36
2022-09-20T21:41:57.384Z,9.33
2022-09-20T21:44:27.682Z,9.35
2022-09-20T21:46:58.062Z,9.32
2022-09-20T21:49:28.477Z,9.38
2022-09-20T21:51:58.872Z,9.36
2022-09-20T21:54:29.172Z,9.36
2022-09-20T21:56:59.584Z,9.33
2022-09-20T21:59:29.985Z,9.37
2022-09-20T22:02:00.442Z,9.34
2022-09-20T22:04:30.721Z,9.40
2022-09-20T22:07:02.838Z,9.35
2022-09-20T22:09:33.135Z,9.29
2022-09-20T22:12:03.644Z,9.28
2022-09-20T22:14:35.025Z,9.28
2022-09-20T22:17:05.381Z,9.34
2022-09-20T22:19:36.376Z,9.25
2022-09-20T22:22:06.926Z,9.28
2022-09-20T22:24:39.229Z,9.30
2022-09-20T22:27:09.611Z,9.28
2022-09-20T22:29:40.022Z,9.24
2022-09-20T22:32:10.421Z,9.26
2022-09-20T22:34:40.763Z,9.26
2022-09-20T22:37:11.147Z,9.18
2022-09-20T22:39:41.731Z,9.20
2022-09-20T22:42:12.143Z,9.20
2022-09-20T22:44:42.384Z,9.18
2022-09-20T22:47:12.789Z,9.19
2022-09-20T22:49:43.259Z,9.18
2022-09-20T22:52:13.572Z,9.18
2022-09-20T22:54:45.543Z,9.11
2022-09-20T22:57:20.505Z,9.12
2022-09-20T22:59:50.852Z,9.09
2022-09-20T23:02:21.215Z,9.11
2022-09-20T23:04:51.617Z,9.09
2022-09-20T23:07:21.998Z,9.06
2022-09-20T23:09:52.549Z,9.04
2022-09-20T23:12:23.021Z,9.04
2022-09-20T23:14:53.963Z,9.02
2022-09-20T23:17:24.508Z,9.00
2022-09-20T23:19:54.901Z,9.00
2022-09-20T23:22:25.269Z,9.01
2022-09-20T23:24:55.675Z,9.00
2022-09-20T23:27:26.056Z,8.95
2022-09-20T23:29:56.461Z,8.95
2022-09-20T23:32:26.808Z,9.00
2022-09-20T23:34:57.181Z,8.96
2022-09-20T23:37:27.689Z,9.01
2022-09-20T23:39:58.180Z,9.00
2022-09-20T23:42:28.516Z,8.98
2022-09-20T23:44:58.988Z,9.01
2022-09-20T23:47:29.408Z,8.98
2022-09-20T23:49:59.684Z,8.97
2022-09-20T23:52:30.378Z,9.02
2022-09-20T23:55:00.756Z,8.98
2022-09-20T23:57:31.091Z,8.97
